createdAt,value
2022-11-21T00:00:53.338Z,0.00
2022-11-21T00:01:53.379Z,0.00
2022-11-21T00:02:53.320Z,0.00
2022-11-21T00:03:53.301Z,0.00
2022-11-21T00:04:53.277Z,0.00
2022-11-21T00:05:53.280Z,0.00
2022-11-21T00:06:53.285Z,0.00
2022-11-21T00:07:53.321Z,0.00
2022-11-21T00:08:53.247Z,0.00
2022-11-21T00:09:53.226Z,0.00
2022-11-21T00:10:53.230Z,0.00
2022-11-21T00:11:53.210Z,0.00
2022-11-21T00:12:53.210Z,0.00
2022-11-21T00:13:53.235Z,0.00
2022-11-21T00:14:53.226Z,0.00
2022-11-21T00:15:53.206Z,0.00
2022-11-21T00:16:57.191Z,0.00
2022-11-21T00:17:54.167Z,0.00
2022-11-21T00:18:53.151Z,0.00
2022-11-21T00:19:53.127Z,0.00
2022-11-21T00:20:53.132Z,0.00
2022-11-21T00:21:53.150Z,0.00
2022-11-21T00:22:53.111Z,0.00
2022-11-21T00:23:53.094Z,0.00
2022-11-21T00:24:54.435Z,0.00
2022-11-21T00:25:53.086Z,0.00
2022-11-21T00:26:53.078Z,0.00
2022-11-21T00:27:53.070Z,0.00
2022-11-21T00:28:53.074Z,0.00
2022-11-21T00:29:53.062Z,0.00
2022-11-21T00:30:53.019Z,0.00
2022-11-21T00:31:53.052Z,0.00
2022-11-21T00:32:53.006Z,0.00
2022-11-21T00:33:53.025Z,0.00
2022-11-21T00:34:53.008Z,0.00
2022-11-21T00:35:52.987Z,0.00
2022-11-21T00:36:52.966Z,0.00
2022-11-21T00:37:52.998Z,0.00
2022-11-21T00:38:52.958Z,0.00
2022-11-21T00:39:52.957Z,0.00
2022-11-21T00:40:53.926Z,0.00
2022-11-21T00:41:52.942Z,0.00
2022-11-21T00:42:52.996Z,0.00
2022-11-21T00:43:52.928Z,0.00
2022-11-21T00:44:52.891Z,0.00
2022-11-21T00:45:52.899Z,0.00
2022-11-21T00:46:52.880Z,0.00
2022-11-21T00:47:52.862Z,0.00
2022-11-21T00:48:52.880Z,0.00
2022-11-21T00:49:52.855Z,0.00
2022-11-21T00:50:52.834Z,0.00
2022-11-21T00:51:52.833Z,0.00
2022-11-21T00:52:52.829Z,0.00
2022-11-21T00:53:52.847Z,0.00
2022-11-21T00:54:52.805Z,0.00
2022-11-21T00:55:52.790Z,0.00
2022-11-21T00:56:52.790Z,0.00
2022-11-21T00:57:52.774Z,0.00
2022-11-21T00:58:52.778Z,0.00
2022-11-21T00:59:52.766Z,0.00
2022-11-21T01:00:52.822Z,0.00
2022-11-21T01:01:52.736Z,0.00
2022-11-21T01:02:52.713Z,0.00
2022-11-21T01:03:52.749Z,0.00
2022-11-21T01:04:52.704Z,0.00
2022-11-21T01:05:52.715Z,0.00
2022-11-21T01:06:52.697Z,0.00
2022-11-21T01:07:52.709Z,0.00
2022-11-21T01:08:52.670Z,0.00
2022-11-21T01:09:52.691Z,0.00
2022-11-21T01:10:52.686Z,0.00
2022-11-21T01:11:52.677Z,0.00
2022-11-21T01:12:52.636Z,0.00
2022-11-21T01:13:52.666Z,0.00
2022-11-21T01:14:52.628Z,0.00
2022-11-21T01:15:52.637Z,0.00
2022-11-21T01:16:52.650Z,0.00
2022-11-21T01:17:52.594Z,0.00
2022-11-21T01:18:52.603Z,0.00
2022-11-21T01:19:52.598Z,0.00
2022-11-21T01:20:52.563Z,0.00
2022-11-21T01:21:52.548Z,0.00
2022-11-21T01:22:52.565Z,0.00
2022-11-21T01:23:52.506Z,0.00
2022-11-21T01:24:52.549Z,0.00
2022-11-21T01:25:52.511Z,0.00
2022-11-21T01:26:52.507Z,0.00
2022-11-21T01:27:52.601Z,0.00
2022-11-21T01:28:52.482Z,0.00
2022-11-21T01:29:52.479Z,0.00
2022-11-21T01:30:52.475Z,0.00
2022-11-21T01:31:52.453Z,0.00
2022-11-21T01:32:52.442Z,0.00
2022-11-21T01:33:52.441Z,0.00
2022-11-21T01:34:52.419Z,0.00
2022-11-21T01:35:52.436Z,0.00
2022-11-21T01:36:52.401Z,0.00
2022-11-21T01:37:52.423Z,0.00
2022-11-21T01:38:52.379Z,0.00
2022-11-21T01:39:52.361Z,0.00
2022-11-21T01:40:52.349Z,0.00
2022-11-21T01:41:52.415Z,0.00
2022-11-21T01:42:52.356Z,0.00
2022-11-21T01:43:52.330Z,0.00
2022-11-21T01:44:52.338Z,0.00
2022-11-21T01:45:52.309Z,0.00
2022-11-21T01:46:52.359Z,0.00
2022-11-21T01:47:52.306Z,0.00
2022-11-21T01:48:52.301Z,0.00
2022-11-21T01:49:52.271Z,0.00
2022-11-21T01:50:52.295Z,0.00
2022-11-21T01:51:52.304Z,0.00
2022-11-21T01:52:52.285Z,0.00
2022-11-21T01:53:52.239Z,0.00
2022-11-21T01:54:52.244Z,0.00
2022-11-21T01:55:52.217Z,0.00
2022-11-21T01:56:52.248Z,0.00
2022-11-21T01:57:52.250Z,0.00
2022-11-21T01:58:52.178Z,0.00
2022-11-21T01:59:52.187Z,0.00
2022-11-21T02:00:52.286Z,0.00
2022-11-21T02:01:52.159Z,0.00
2022-11-21T02:02:52.195Z,0.00
2022-11-21T02:03:52.164Z,0.00
2022-11-21T02:04:52.127Z,0.00
2022-11-21T02:05:52.128Z,0.00
2022-11-21T02:06:52.117Z,0.00
2022-11-21T02:07:52.127Z,0.00
2022-11-21T02:08:52.079Z,0.00
2022-11-21T02:09:53.107Z,0.00
2022-11-21T02:10:52.090Z,0.00
2022-11-21T02:11:52.109Z,0.00
2022-11-21T02:12:52.061Z,0.00
2022-11-21T02:13:52.074Z,0.00
2022-11-21T02:14:52.043Z,0.00
2022-11-21T02:15:52.067Z,0.00
2022-11-21T02:16:52.016Z,0.00
2022-11-21T02:17:51.996Z,0.00
2022-11-21T02:18:52.065Z,0.00
2022-11-21T02:19:52.024Z,0.00
2022-11-21T02:20:52.967Z,0.00
2022-11-21T02:21:51.966Z,0.00
2022-11-21T02:22:51.964Z,0.00
2022-11-21T02:23:54.295Z,0.00
2022-11-21T02:24:52.974Z,0.00
2022-11-21T02:25:51.920Z,0.00
2022-11-21T02:26:51.925Z,0.00
2022-11-21T02:27:51.903Z,0.00
2022-11-21T02:28:51.869Z,0.00
2022-11-21T02:29:51.895Z,0.00
2022-11-21T02:30:51.891Z,0.00
2022-11-21T02:31:51.875Z,0.00
2022-11-21T02:32:51.877Z,0.00
2022-11-21T02:33:51.846Z,0.00
2022-11-21T02:34:51.818Z,0.00
2022-11-21T02:35:51.845Z,0.00
2022-11-21T02:36:51.830Z,0.00
2022-11-21T02:37:51.806Z,0.00
2022-11-21T02:38:51.821Z,0.00
2022-11-21T02:39:51.811Z,0.00
2022-11-21T02:40:51.765Z,0.00
2022-11-21T02:41:51.767Z,0.00
2022-11-21T02:42:52.928Z,0.00
2022-11-21T02:43:52.768Z,0.00
2022-11-21T02:44:51.724Z,0.00
2022-11-21T02:45:51.717Z,0.00
2022-11-21T02:46:51.729Z,0.00
2022-11-21T02:47:51.725Z,0.00
2022-11-21T02:48:51.685Z,0.00
2022-11-21T02:49:51.695Z,0.00
2022-11-21T02:50:51.698Z,0.00
2022-11-21T02:51:51.662Z,0.00
2022-11-21T02:52:51.664Z,0.00
2022-11-21T02:53:51.662Z,0.00
2022-11-21T02:54:51.657Z,0.00
2022-11-21T02:55:51.631Z,0.00
2022-11-21T02:56:51.639Z,0.00
2022-11-21T02:57:51.613Z,0.00
2022-11-21T02:58:51.625Z,0.00
2022-11-21T02:59:51.592Z,0.00
2022-11-21T03:00:51.683Z,0.00
2022-11-21T03:01:51.580Z,0.00
2022-11-21T03:02:51.580Z,0.00
2022-11-21T03:04:23.384Z,0.00
2022-11-21T03:04:51.491Z,0.00
2022-11-21T03:05:51.480Z,0.00
2022-11-21T03:06:51.463Z,0.00
2022-11-21T03:07:51.485Z,0.00
2022-11-21T03:08:51.448Z,0.00
2022-11-21T03:09:51.435Z,0.00
2022-11-21T03:10:51.428Z,0.00
2022-11-21T03:11:51.423Z,0.00
2022-11-21T03:12:51.426Z,0.00
2022-11-21T03:13:51.390Z,0.00
2022-11-21T03:14:51.383Z,0.00
2022-11-21T03:15:51.372Z,0.00
2022-11-21T03:16:51.365Z,0.00
2022-11-21T03:17:51.354Z,0.00
2022-11-21T03:18:51.361Z,0.00
2022-11-21T03:19:51.344Z,0.00
2022-11-21T03:20:51.331Z,0.00
2022-11-21T03:21:51.314Z,0.00
2022-11-21T03:22:51.312Z,0.00
2022-11-21T03:23:51.330Z,0.00
2022-11-21T03:24:51.290Z,0.00
2022-11-21T03:25:51.286Z,0.00
2022-11-21T03:26:51.279Z,0.00
2022-11-21T03:27:51.261Z,0.00
2022-11-21T03:28:51.247Z,0.00
2022-11-21T03:29:51.263Z,0.00
2022-11-21T03:30:51.236Z,0.00
2022-11-21T03:31:51.233Z,0.00
2022-11-21T03:32:51.222Z,0.00
2022-11-21T03:33:51.200Z,0.00
2022-11-21T03:34:51.214Z,0.00
2022-11-21T03:35:52.188Z,0.00
2022-11-21T03:36:51.173Z,0.00
2022-11-21T03:37:51.174Z,0.00
2022-11-21T03:38:51.159Z,0.00
2022-11-21T03:39:51.179Z,0.00
2022-11-21T03:40:51.143Z,0.00
2022-11-21T03:41:51.187Z,0.00
2022-11-21T03:42:51.137Z,0.00
2022-11-21T03:43:51.127Z,0.00
2022-11-21T03:44:51.114Z,0.00
2022-11-21T03:45:51.121Z,0.00
2022-11-21T03:46:51.092Z,0.00
2022-11-21T03:47:51.075Z,0.00
2022-11-21T03:48:51.066Z,0.00
2022-11-21T03:49:51.052Z,0.00
2022-11-21T03:50:51.060Z,0.00
2022-11-21T03:51:51.042Z,0.00
2022-11-21T03:52:51.028Z,0.00
2022-11-21T03:53:51.018Z,0.00
2022-11-21T03:54:51.003Z,0.00
2022-11-21T03:55:51.011Z,0.00
2022-11-21T03:56:51.006Z,0.00
2022-11-21T03:57:50.997Z,0.00
2022-11-21T03:58:50.975Z,0.00
2022-11-21T03:59:50.992Z,0.00
2022-11-21T04:00:50.957Z,0.00
2022-11-21T04:01:51.003Z,0.00
2022-11-21T04:02:50.941Z,0.00
2022-11-21T04:03:50.918Z,0.00
2022-11-21T04:04:50.913Z,0.00
2022-11-21T04:05:50.897Z,0.00
2022-11-21T04:06:50.914Z,0.00
2022-11-21T04:07:50.885Z,0.00
2022-11-21T04:08:50.875Z,0.00
2022-11-21T04:09:50.885Z,0.00
2022-11-21T04:10:50.844Z,0.00
2022-11-21T04:11:50.835Z,0.00
2022-11-21T04:12:50.832Z,0.00
2022-11-21T04:13:50.824Z,0.00
2022-11-21T04:14:50.824Z,0.00
2022-11-21T04:15:50.811Z,0.00
2022-11-21T04:16:50.787Z,0.00
2022-11-21T04:17:50.791Z,0.00
2022-11-21T04:18:50.793Z,0.00
2022-11-21T04:19:50.790Z,0.00
2022-11-21T04:20:50.757Z,0.00
2022-11-21T04:21:50.754Z,0.00
2022-11-21T04:22:50.728Z,0.00
2022-11-21T04:23:50.711Z,0.00
2022-11-21T04:24:50.699Z,0.00
2022-11-21T04:25:50.699Z,0.00
2022-11-21T04:26:50.712Z,0.00
2022-11-21T04:27:50.694Z,0.00
2022-11-21T04:28:50.671Z,0.00
2022-11-21T04:29:50.664Z,0.00
2022-11-21T04:30:54.465Z,0.00
2022-11-21T04:31:50.644Z,0.00
2022-11-21T04:32:50.656Z,0.00
2022-11-21T04:33:50.627Z,0.00
2022-11-21T04:34:50.610Z,0.00
2022-11-21T04:35:50.609Z,0.00
2022-11-21T04:36:50.641Z,0.00
2022-11-21T04:37:50.592Z,0.00
2022-11-21T04:38:50.609Z,0.00
2022-11-21T04:39:50.559Z,0.00
2022-11-21T04:40:50.562Z,0.00
2022-11-21T04:41:50.540Z,0.00
2022-11-21T04:42:50.536Z,0.00
2022-11-21T04:43:50.546Z,0.00
2022-11-21T04:44:50.521Z,0.00
2022-11-21T04:45:50.509Z,0.00
2022-11-21T04:46:50.497Z,0.00
2022-11-21T04:47:50.485Z,0.00
2022-11-21T04:48:50.476Z,0.00
2022-11-21T04:49:50.478Z,0.00
2022-11-21T04:50:50.463Z,0.00
2022-11-21T04:51:50.444Z,0.00
2022-11-21T04:52:50.453Z,0.00
2022-11-21T04:53:50.420Z,0.00
2022-11-21T04:54:50.441Z,0.00
2022-11-21T04:55:50.422Z,0.00
2022-11-21T04:56:50.415Z,0.00
2022-11-21T04:57:50.396Z,0.00
2022-11-21T04:58:50.391Z,0.00
2022-11-21T04:59:50.370Z,0.00
2022-11-21T05:00:50.428Z,0.00
2022-11-21T05:01:50.401Z,0.00
2022-11-21T05:02:50.337Z,0.00
2022-11-21T05:03:50.327Z,0.00
2022-11-21T05:04:50.337Z,0.00
2022-11-21T05:05:50.305Z,0.00
2022-11-21T05:06:50.317Z,0.00
2022-11-21T05:07:50.285Z,0.00
2022-11-21T05:08:53.457Z,0.00
2022-11-21T05:09:51.260Z,0.00
2022-11-21T05:10:50.278Z,0.00
2022-11-21T05:11:50.245Z,0.00
2022-11-21T05:12:50.255Z,0.00
2022-11-21T05:13:50.232Z,0.00
2022-11-21T05:14:50.218Z,0.00
2022-11-21T05:15:50.213Z,0.00
2022-11-21T05:16:50.207Z,0.00
2022-11-21T05:17:50.253Z,0.00
2022-11-21T05:18:50.195Z,0.00
2022-11-21T05:19:50.172Z,0.00
2022-11-21T05:20:50.163Z,0.00
2022-11-21T05:21:50.156Z,0.00
2022-11-21T05:22:50.144Z,0.00
2022-11-21T05:23:50.145Z,0.00
2022-11-21T05:24:50.131Z,0.00
2022-11-21T05:25:50.132Z,0.00
2022-11-21T05:26:50.128Z,0.00
2022-11-21T05:27:50.101Z,0.00
2022-11-21T05:28:50.133Z,0.00
2022-11-21T05:29:50.095Z,0.00
2022-11-21T05:30:50.070Z,0.00
2022-11-21T05:31:50.067Z,0.00
2022-11-21T05:32:50.049Z,0.00
2022-11-21T05:33:50.065Z,0.00
2022-11-21T05:34:50.028Z,0.00
2022-11-21T05:35:50.021Z,0.00
2022-11-21T05:36:50.016Z,0.00
2022-11-21T05:37:49.997Z,0.00
2022-11-21T05:38:49.989Z,0.00
2022-11-21T05:39:49.994Z,0.00
2022-11-21T05:40:49.975Z,0.00
2022-11-21T05:41:49.971Z,0.00
2022-11-21T05:42:49.951Z,0.00
2022-11-21T05:43:49.956Z,0.00
2022-11-21T05:44:49.946Z,0.00
2022-11-21T05:45:49.919Z,0.00
2022-11-21T05:46:49.912Z,0.00
2022-11-21T05:47:49.921Z,0.00
2022-11-21T05:48:49.917Z,0.00
2022-11-21T05:49:49.886Z,0.00
2022-11-21T05:50:49.897Z,0.00
2022-11-21T05:51:49.873Z,0.00
2022-11-21T05:52:49.859Z,0.00
2022-11-21T05:53:49.853Z,0.00
2022-11-21T05:54:49.849Z,0.00
2022-11-21T05:55:49.827Z,0.00
2022-11-21T05:56:49.837Z,0.00
2022-11-21T05:57:49.807Z,0.00
2022-11-21T05:58:49.823Z,0.00
2022-11-21T05:59:49.799Z,0.00
2022-11-21T06:00:49.780Z,0.00
2022-11-21T06:01:49.782Z,0.00
2022-11-21T06:02:49.811Z,0.00
2022-11-21T06:03:49.809Z,0.00
2022-11-21T06:04:49.743Z,0.00
2022-11-21T06:05:49.731Z,0.00
2022-11-21T06:06:49.720Z,0.00
2022-11-21T06:07:49.709Z,0.00
2022-11-21T06:08:49.723Z,0.00
2022-11-21T06:09:49.691Z,0.00
2022-11-21T06:10:49.685Z,0.00
2022-11-21T06:11:49.708Z,0.00
2022-11-21T06:12:49.657Z,0.00
2022-11-21T06:13:49.654Z,0.00
2022-11-21T06:14:49.642Z,0.00
2022-11-21T06:15:49.633Z,0.00
2022-11-21T06:16:49.641Z,0.00
2022-11-21T06:17:49.622Z,0.00
2022-11-21T06:18:50.800Z,0.00
2022-11-21T06:19:49.598Z,0.00
2022-11-21T06:20:49.610Z,4.00
2022-11-21T06:21:49.597Z,0.00
2022-11-21T06:22:49.596Z,4.00
2022-11-21T06:23:49.552Z,4.00
2022-11-21T06:24:49.546Z,4.00
2022-11-21T06:25:49.575Z,4.00
2022-11-21T06:26:49.523Z,8.00
2022-11-21T06:27:49.531Z,12.00
2022-11-21T06:28:49.502Z,12.00
2022-11-21T06:29:49.503Z,12.00
2022-11-21T06:30:49.518Z,12.00
2022-11-21T06:31:49.480Z,12.00
2022-11-21T06:32:49.515Z,16.00
2022-11-21T06:33:49.462Z,16.00
2022-11-21T06:34:49.447Z,20.00
2022-11-21T06:35:49.453Z,20.00
2022-11-21T06:36:49.445Z,20.00
2022-11-21T06:37:53.340Z,24.00
2022-11-21T06:38:50.404Z,20.00
2022-11-21T06:39:49.396Z,24.00
2022-11-21T06:40:49.380Z,24.00
2022-11-21T06:41:49.399Z,28.00
2022-11-21T06:42:49.373Z,32.00
2022-11-21T06:43:49.376Z,36.00
2022-11-21T06:44:49.347Z,36.00
2022-11-21T06:45:49.371Z,40.00
2022-11-21T06:46:51.512Z,44.00
2022-11-21T06:47:50.316Z,52.00
2022-11-21T06:48:49.315Z,60.00
2022-11-21T06:49:49.296Z,72.00
2022-11-21T06:50:49.305Z,80.00
2022-11-21T06:51:49.341Z,92.00
2022-11-21T06:52:49.266Z,100.00
2022-11-21T06:53:49.283Z,112.00
2022-11-21T06:54:49.248Z,124.00
2022-11-21T06:55:49.254Z,136.00
2022-11-21T06:56:49.231Z,144.00
2022-11-21T06:57:49.225Z,156.00
2022-11-21T06:58:49.217Z,168.00
2022-11-21T06:59:49.202Z,176.00
2022-11-21T07:00:49.213Z,188.00
2022-11-21T07:01:49.247Z,200.00
2022-11-21T07:02:49.171Z,208.00
2022-11-21T07:03:49.161Z,212.00
2022-11-21T07:04:49.152Z,224.00
2022-11-21T07:05:49.141Z,228.00
2022-11-21T07:06:49.152Z,232.00
2022-11-21T07:07:49.126Z,244.00
2022-11-21T07:09:00.070Z,268.00
2022-11-21T07:09:51.327Z,300.00
2022-11-21T07:11:17.727Z,344.00
2022-11-21T07:11:49.092Z,392.00
2022-11-21T07:12:49.086Z,412.00
2022-11-21T07:13:49.086Z,444.00
2022-11-21T07:14:49.067Z,460.00
2022-11-21T07:15:49.065Z,472.00
2022-11-21T07:16:49.072Z,448.00
2022-11-21T07:17:49.036Z,444.00
2022-11-21T07:18:49.013Z,432.00
2022-11-21T07:19:49.006Z,408.00
2022-11-21T07:20:49.000Z,392.00
2022-11-21T07:21:48.985Z,404.00
2022-11-21T07:22:49.001Z,404.00
2022-11-21T07:23:48.980Z,392.00
2022-11-21T07:24:48.977Z,360.00
2022-11-21T07:25:48.963Z,380.00
2022-11-21T07:26:48.937Z,392.00
2022-11-21T07:27:48.926Z,444.00
2022-11-21T07:28:48.914Z,484.00
2022-11-21T07:29:48.949Z,496.00
2022-11-21T07:30:48.896Z,452.00
2022-11-21T07:31:48.888Z,440.00
2022-11-21T07:32:48.883Z,504.00
2022-11-21T07:33:48.881Z,556.00
2022-11-21T07:34:48.894Z,564.00
2022-11-21T07:35:48.835Z,600.00
2022-11-21T07:36:48.836Z,636.00
2022-11-21T07:37:48.818Z,680.00
2022-11-21T07:38:48.807Z,720.00
2022-11-21T07:39:48.821Z,756.00
2022-11-21T07:40:48.801Z,764.00
2022-11-21T07:41:48.804Z,752.00
2022-11-21T07:42:48.788Z,784.00
2022-11-21T07:43:48.770Z,804.00
2022-11-21T07:44:48.760Z,820.00
2022-11-21T07:45:48.752Z,832.00
2022-11-21T07:46:48.750Z,812.00
2022-11-21T07:47:48.729Z,748.00
2022-11-21T07:48:48.723Z,780.00
2022-11-21T07:49:48.709Z,844.00
2022-11-21T07:50:48.724Z,860.00
2022-11-21T07:51:48.711Z,832.00
2022-11-21T07:52:48.688Z,772.00
2022-11-21T07:53:48.672Z,832.00
2022-11-21T07:54:48.662Z,900.00
2022-11-21T07:55:48.697Z,940.00
2022-11-21T07:56:48.669Z,1008.00
2022-11-21T07:57:48.640Z,1068.00
2022-11-21T07:58:48.638Z,1088.00
2022-11-21T07:59:48.619Z,1100.00
2022-11-21T08:00:48.605Z,1140.00
2022-11-21T08:01:48.599Z,1164.00
2022-11-21T08:02:48.589Z,1148.00
2022-11-21T08:03:48.602Z,1164.00
2022-11-21T08:04:48.576Z,1180.00
2022-11-21T08:05:48.630Z,1132.00
2022-11-21T08:06:48.550Z,1112.00
2022-11-21T08:07:48.530Z,1112.00
2022-11-21T08:08:48.548Z,1276.00
2022-11-21T08:09:48.525Z,1412.00
2022-11-21T08:10:48.531Z,1308.00
2022-11-21T08:11:48.526Z,1252.00
2022-11-21T08:12:48.495Z,1256.00
2022-11-21T08:13:48.481Z,1368.00
2022-11-21T08:14:48.487Z,1548.00
2022-11-21T08:15:48.486Z,1636.00
2022-11-21T08:16:48.464Z,1600.00
2022-11-21T08:17:48.458Z,1576.00
2022-11-21T08:18:48.427Z,1500.00
2022-11-21T08:19:48.434Z,1388.00
2022-11-21T08:20:48.432Z,1316.00
2022-11-21T08:21:48.413Z,1352.00
2022-11-21T08:22:48.394Z,1632.00
2022-11-21T08:23:48.477Z,1952.00
2022-11-21T08:24:48.385Z,2244.00
2022-11-21T08:25:48.379Z,2416.00
2022-11-21T08:26:48.353Z,2324.00
2022-11-21T08:27:48.364Z,2088.00
2022-11-21T08:28:48.337Z,2024.00
2022-11-21T08:29:48.326Z,2100.00
2022-11-21T08:30:48.330Z,2184.00
2022-11-21T08:31:48.312Z,2104.00
2022-11-21T08:32:48.318Z,2176.00
2022-11-21T08:33:48.291Z,2324.00
2022-11-21T08:34:48.275Z,2288.00
2022-11-21T08:35:48.294Z,2108.00
2022-11-21T08:36:48.267Z,2072.00
2022-11-21T08:37:48.257Z,2308.00
2022-11-21T08:38:48.235Z,2640.00
2022-11-21T08:39:48.231Z,2716.00
2022-11-21T08:40:48.225Z,2608.00
2022-11-21T08:41:48.204Z,2364.00
2022-11-21T08:42:48.195Z,2020.00
2022-11-21T08:43:48.206Z,1904.00
2022-11-21T08:44:48.169Z,1940.00
2022-11-21T08:45:48.178Z,2088.00
2022-11-21T08:46:48.163Z,1980.00
2022-11-21T08:47:48.138Z,1800.00
2022-11-21T08:48:48.138Z,1752.00
2022-11-21T08:49:48.151Z,1804.00
2022-11-21T08:50:48.144Z,1916.00
2022-11-21T08:51:48.096Z,2124.00
2022-11-21T08:52:48.108Z,2424.00
2022-11-21T08:53:48.101Z,2368.00
2022-11-21T08:54:48.083Z,2216.00
2022-11-21T08:55:48.079Z,2080.00
2022-11-21T08:56:48.073Z,1976.00
2022-11-21T08:57:48.042Z,1956.00
2022-11-21T08:58:48.037Z,2052.00
2022-11-21T08:59:48.033Z,2364.00
2022-11-21T09:00:48.031Z,2776.00
2022-11-21T09:01:48.030Z,3028.00
2022-11-21T09:02:47.998Z,3008.00
2022-11-21T09:03:48.017Z,2964.00
2022-11-21T09:05:19.903Z,2888.00
2022-11-21T09:05:48.013Z,2920.00
2022-11-21T09:06:48.161Z,2908.00
2022-11-21T09:07:48.049Z,2888.00
2022-11-21T09:08:48.065Z,2760.00
2022-11-21T09:09:47.965Z,2816.00
2022-11-21T09:10:47.966Z,2892.00
2022-11-21T09:11:47.968Z,2884.00
2022-11-21T09:12:47.962Z,2832.00
2022-11-21T09:13:47.968Z,2756.00
2022-11-21T09:14:47.938Z,2900.00
2022-11-21T09:15:48.041Z,2928.00
2022-11-21T09:16:48.929Z,2948.00
2022-11-21T09:17:48.002Z,2868.00
2022-11-21T09:18:48.915Z,2800.00
2022-11-21T09:19:47.878Z,2912.00
2022-11-21T09:20:47.960Z,2956.00
2022-11-21T09:21:47.876Z,2920.00
2022-11-21T09:22:47.847Z,2952.00
2022-11-21T09:23:47.859Z,2948.00
2022-11-21T09:24:47.829Z,2920.00
2022-11-21T09:25:47.846Z,2728.00
2022-11-21T09:26:47.825Z,2408.00
2022-11-21T09:27:47.830Z,2356.00
2022-11-21T09:28:47.796Z,2364.00
2022-11-21T09:29:53.671Z,2304.00
2022-11-21T09:30:47.799Z,2344.00
2022-11-21T09:31:47.760Z,2368.00
2022-11-21T09:32:47.751Z,2488.00
2022-11-21T09:33:49.726Z,2508.00
2022-11-21T09:34:49.732Z,2452.00
2022-11-21T09:35:48.047Z,2296.00
2022-11-21T09:36:48.719Z,2356.00
2022-11-21T09:37:47.731Z,2556.00
2022-11-21T09:38:47.719Z,2600.00
2022-11-21T09:39:48.943Z,2612.00
2022-11-21T09:40:47.712Z,2512.00
2022-11-21T09:41:47.686Z,2584.00
2022-11-21T09:42:47.691Z,2680.00
2022-11-21T09:43:51.752Z,2928.00
2022-11-21T09:44:48.652Z,3344.00
2022-11-21T09:45:47.670Z,3944.00
2022-11-21T09:46:47.702Z,4288.00
2022-11-21T09:47:47.637Z,4324.00
2022-11-21T09:48:47.651Z,4572.00
2022-11-21T09:49:47.587Z,4752.00
2022-11-21T09:50:53.409Z,4544.00
2022-11-21T09:51:49.625Z,4276.00
2022-11-21T09:52:47.579Z,4248.00
2022-11-21T09:53:47.596Z,4324.00
2022-11-21T09:54:48.136Z,4312.00
2022-11-21T09:55:47.566Z,4408.00
2022-11-21T09:56:47.516Z,4768.00
2022-11-21T09:57:47.520Z,4988.00
2022-11-21T09:58:47.552Z,5140.00
2022-11-21T09:59:47.535Z,5476.00
2022-11-21T10:00:47.570Z,6248.00
2022-11-21T10:01:47.469Z,6116.00
2022-11-21T10:02:47.465Z,5956.00
2022-11-21T10:03:47.652Z,6140.00
2022-11-21T10:04:47.460Z,6348.00
2022-11-21T10:05:47.461Z,6276.00
2022-11-21T10:06:47.442Z,5880.00
2022-11-21T10:07:47.518Z,6276.00
2022-11-21T10:08:48.064Z,7272.00
2022-11-21T10:09:48.222Z,6936.00
2022-11-21T10:10:47.429Z,7264.00
2022-11-21T10:11:48.073Z,6984.00
2022-11-21T10:12:47.368Z,6196.00
2022-11-21T10:13:47.434Z,6132.00
2022-11-21T10:14:48.106Z,5628.00
2022-11-21T10:15:47.333Z,6044.00
2022-11-21T10:16:47.353Z,6028.00
2022-11-21T10:17:48.145Z,6168.00
2022-11-21T10:18:47.335Z,6744.00
2022-11-21T10:19:47.333Z,6268.00
2022-11-21T10:20:48.273Z,5596.00
2022-11-21T10:21:47.297Z,5416.00
2022-11-21T10:22:47.326Z,4896.00
2022-11-21T10:23:47.270Z,4992.00
2022-11-21T10:24:47.252Z,4040.00
2022-11-21T10:25:47.317Z,3884.00
2022-11-21T10:26:47.246Z,4104.00
2022-11-21T10:27:47.279Z,4688.00
2022-11-21T10:28:47.237Z,4904.00
2022-11-21T10:29:47.211Z,4620.00
2022-11-21T10:30:47.201Z,4928.00
2022-11-21T10:31:47.193Z,5192.00
2022-11-21T10:32:47.231Z,5220.00
2022-11-21T10:33:47.229Z,5244.00
2022-11-21T10:34:47.173Z,5504.00
2022-11-21T10:35:47.169Z,4984.00
2022-11-21T10:36:47.140Z,3836.00
2022-11-21T10:37:47.149Z,3420.00
2022-11-21T10:38:47.162Z,3392.00
2022-11-21T10:39:47.136Z,3512.00
2022-11-21T10:40:47.141Z,3536.00
2022-11-21T10:41:47.099Z,3468.00
2022-11-21T10:42:47.072Z,3660.00
2022-11-21T10:43:47.067Z,3756.00
2022-11-21T10:44:47.113Z,3556.00
2022-11-21T10:45:47.033Z,3068.00
2022-11-21T10:46:47.036Z,3072.00
2022-11-21T10:47:47.078Z,3688.00
2022-11-21T10:48:47.044Z,4712.00
2022-11-21T10:49:47.033Z,5556.00
2022-11-21T10:50:47.007Z,5908.00
2022-11-21T10:51:47.174Z,6812.00
2022-11-21T10:52:48.097Z,7532.00
2022-11-21T10:53:47.117Z,8520.00
2022-11-21T10:54:47.962Z,8376.00
2022-11-21T10:55:47.093Z,7824.00
2022-11-21T10:56:47.938Z,8496.00
2022-11-21T10:57:46.954Z,6984.00
2022-11-21T10:58:48.144Z,6876.00
2022-11-21T10:59:47.121Z,7592.00
2022-11-21T11:00:47.933Z,8492.00
2022-11-21T11:01:48.086Z,9364.00
2022-11-21T11:02:47.111Z,9552.00
2022-11-21T11:04:07.097Z,8808.00
2022-11-21T11:04:52.321Z,8424.00
2022-11-21T11:05:47.867Z,8200.00
2022-11-21T11:06:46.833Z,7348.00
2022-11-21T11:07:46.935Z,6920.00
2022-11-21T11:08:46.802Z,7296.00
2022-11-21T11:09:46.824Z,7020.00
2022-11-21T11:10:46.813Z,7184.00
2022-11-21T11:11:48.177Z,7596.00
2022-11-21T11:12:46.829Z,7680.00
2022-11-21T11:13:47.811Z,7828.00
2022-11-21T11:14:47.747Z,8280.00
2022-11-21T11:15:46.786Z,8500.00
2022-11-21T11:16:46.771Z,8552.00
2022-11-21T11:17:48.025Z,8572.00
2022-11-21T11:18:47.152Z,7776.00
2022-11-21T11:19:48.485Z,6556.00
2022-11-21T11:20:46.754Z,5376.00
2022-11-21T11:21:46.753Z,4572.00
2022-11-21T11:22:48.030Z,4156.00
2022-11-21T11:23:47.025Z,3800.00
2022-11-21T11:24:46.894Z,3404.00
2022-11-21T11:25:47.822Z,3372.00
2022-11-21T11:26:48.117Z,3636.00
2022-11-21T11:27:46.649Z,3856.00
2022-11-21T11:28:47.832Z,4024.00
2022-11-21T11:29:46.688Z,4336.00
2022-11-21T11:30:46.615Z,4424.00
2022-11-21T11:31:46.586Z,4680.00
2022-11-21T11:32:46.593Z,4832.00
2022-11-21T11:33:46.989Z,4716.00
2022-11-21T11:34:47.079Z,4484.00
2022-11-21T11:35:47.129Z,4488.00
2022-11-21T11:36:47.171Z,4304.00
2022-11-21T11:37:47.089Z,4116.00
2022-11-21T11:38:47.138Z,3984.00
2022-11-21T11:39:46.542Z,3980.00
2022-11-21T11:40:46.543Z,4056.00
2022-11-21T11:41:47.232Z,3816.00
2022-11-21T11:42:47.205Z,3400.00
2022-11-21T11:43:47.130Z,2864.00
2022-11-21T11:44:47.110Z,2396.00
2022-11-21T11:45:47.045Z,1956.00
2022-11-21T11:46:47.058Z,1668.00
2022-11-21T11:47:50.451Z,1556.00
2022-11-21T11:49:16.693Z,1608.00
2022-11-21T11:49:47.977Z,1696.00
2022-11-21T11:50:46.449Z,1684.00
2022-11-21T11:51:47.020Z,1764.00
2022-11-21T11:52:47.030Z,2000.00
2022-11-21T11:53:47.145Z,2356.00
2022-11-21T11:54:47.049Z,2784.00
2022-11-21T11:55:46.992Z,2872.00
2022-11-21T11:56:47.265Z,2896.00
2022-11-21T11:57:47.002Z,3000.00
2022-11-21T11:58:46.322Z,2980.00
2022-11-21T11:59:47.351Z,2820.00
2022-11-21T12:00:46.352Z,2648.00
2022-11-21T12:01:46.438Z,2500.00
2022-11-21T12:02:47.088Z,2364.00
2022-11-21T12:03:47.144Z,2236.00
2022-11-21T12:04:47.130Z,2304.00
2022-11-21T12:05:46.952Z,2356.00
2022-11-21T12:07:52.784Z,2248.00
2022-11-21T12:08:39.564Z,2116.00
2022-11-21T12:08:48.295Z,2052.00
2022-11-21T12:09:47.220Z,2200.00
2022-11-21T12:10:46.240Z,2540.00
2022-11-21T12:11:46.965Z,3248.00
2022-11-21T12:12:46.198Z,3868.00
2022-11-21T12:13:46.227Z,3988.00
2022-11-21T12:14:47.077Z,3908.00
2022-11-21T12:15:47.295Z,3696.00
2022-11-21T12:16:47.164Z,3492.00
2022-11-21T12:17:47.170Z,3296.00
2022-11-21T12:18:47.232Z,3244.00
2022-11-21T12:19:47.179Z,3268.00
2022-11-21T12:20:47.156Z,3320.00
2022-11-21T12:21:46.189Z,3356.00
2022-11-21T12:22:47.219Z,3404.00
2022-11-21T12:23:47.375Z,3356.00
2022-11-21T12:24:48.084Z,3264.00
2022-11-21T12:25:47.391Z,3160.00
2022-11-21T12:26:47.167Z,3192.00
2022-11-21T12:27:47.104Z,3288.00
2022-11-21T12:28:47.081Z,3412.00
2022-11-21T12:29:47.157Z,3612.00
2022-11-21T12:30:46.039Z,3744.00
2022-11-21T12:31:47.163Z,3812.00
2022-11-21T12:32:47.082Z,3988.00
2022-11-21T12:33:46.987Z,4144.00
2022-11-21T12:34:47.117Z,4292.00
2022-11-21T12:35:47.157Z,4412.00
2022-11-21T12:36:47.101Z,4560.00
2022-11-21T12:37:47.171Z,4724.00
2022-11-21T12:38:47.007Z,4944.00
2022-11-21T12:39:45.957Z,5064.00
2022-11-21T12:40:45.947Z,5712.00
2022-11-21T12:41:46.060Z,4348.00
2022-11-21T12:42:47.198Z,4668.00
2022-11-21T12:43:47.095Z,5792.00
2022-11-21T12:44:47.122Z,5892.00